Time;durP1;ratioP1;P1;durP2;ratioP2;P2;SDS_P1;SDS_P2;PMS_P1;PMS_P2;Temp;Humidity;BMP_temperature;BMP_pressure;BME280_temperature;BME280_humidity;BME280_pressure;Samples;Min_cycle;Max_cycle;Signal;HPM_P1;HPM_P2
2022/05/16 00:02:03;;;;;;;13.00;5.03;;;13.30;99.90;;;;;;5052880;28;20533;-70
2022/05/16 00:04:29;;;;;;;9.48;4.97;;;13.30;99.90;;;;;;5054682;28;20063;-70
2022/05/16 00:06:55;;;;;;;12.63;5.60;;;13.30;99.90;;;;;;5037848;28;20485;-70
2022/05/16 00:09:21;;;;;;;11.02;4.93;;;13.30;99.90;;;;;;5053600;28;20043;-70
2022/05/16 00:11:46;;;;;;;11.43;4.90;;;13.30;99.90;;;;;;5038101;28;20041;-70
2022/05/16 00:14:12;;;;;;;11.57;5.30;;;13.30;99.90;;;;;;5051432;28;20428;-70
2022/05/16 00:16:38;;;;;;;11.25;5.32;;;13.30;99.90;;;;;;5054354;28;20037;-70
2022/05/16 00:19:04;;;;;;;13.38;5.28;;;13.30;99.90;;;;;;5037880;28;20138;-70
2022/05/16 00:21:31;;;;;;;12.02;5.30;;;13.30;99.90;;;;;;5036860;28;20052;-70
2022/05/16 00:23:56;;;;;;;10.45;5.00;;;13.20;99.90;;;;;;5054175;28;20094;-70
2022/05/16 00:26:22;;;;;;;11.40;6.03;;;13.30;99.90;;;;;;5053359;28;20515;-70
2022/05/16 00:28:48;;;;;;;9.80;4.72;;;13.20;99.90;;;;;;5052799;28;20041;-70
2022/05/16 00:31:14;;;;;;;11.45;5.57;;;13.20;99.90;;;;;;5054821;28;20049;-70
2022/05/16 00:33:41;;;;;;;9.82;5.32;;;13.10;99.90;;;;;;5037304;28;20033;-70
2022/05/16 00:36:06;;;;;;;12.13;5.07;;;13.00;99.90;;;;;;5053267;28;20119;-70
2022/05/16 00:38:32;;;;;;;11.48;4.90;;;13.10;99.90;;;;;;5036127;28;20124;-70
2022/05/16 00:41:00;;;;;;;11.68;5.32;;;13.20;99.90;;;;;;5053803;28;20508;-70
2022/05/16 00:43:48;;;;;;;10.70;5.35;;;13.10;99.90;;;;;;5052251;28;20059;-70
2022/05/16 00:46:16;;;;;;;9.35;4.57;;;13.00;99.90;;;;;;5053074;28;20039;-71
2022/05/16 00:48:42;;;;;;;8.93;4.50;;;13.10;99.90;;;;;;5053922;28;20389;-71
2022/05/16 00:51:31;;;;;;;11.35;5.50;;;13.10;99.90;;;;;;5053519;28;20037;-70
2022/05/16 00:54:06;;;;;;;10.93;4.68;;;13.00;99.90;;;;;;5033828;28;20490;-71
2022/05/16 00:56:32;;;;;;;12.60;4.93;;;13.00;99.90;;;;;;5037731;28;20045;-70
2022/05/16 00:58:58;;;;;;;12.02;5.20;;;12.90;99.90;;;;;;5053504;28;20572;-70
2022/05/16 01:06:56;;;;;;;9.80;4.55;;;12.80;99.90;;;;;;5052281;28;20084;-70
2022/05/16 01:09:22;;;;;;;12.43;4.93;;;12.90;99.90;;;;;;5052050;28;20481;-70
2022/05/16 01:11:47;;;;;;;9.30;4.30;;;12.90;99.90;;;;;;5036566;28;20040;-70
2022/05/16 01:14:40;;;;;;;11.02;4.38;;;12.80;99.90;;;;;;5036444;28;20144;-70
2022/05/16 01:17:06;;;;;;;7.88;4.00;;;12.90;99.90;;;;;;5053465;28;20052;-71
2022/05/16 01:19:31;;;;;;;9.43;4.30;;;12.90;99.90;;;;;;5052228;28;20048;-70
2022/05/16 01:22:04;;;;;;;9.55;4.03;;;12.80;99.90;;;;;;5050230;28;20032;-70
2022/05/16 01:24:29;;;;;;;;;;;12.90;99.90;;;;;;5035645;28;20123;-70
2022/05/16 01:26:55;;;;;;;7.70;3.58;;;12.80;99.90;;;;;;5053036;28;20007;-71
2022/05/16 01:29:20;;;;;;;9.43;4.18;;;12.80;99.90;;;;;;5051938;28;20401;-70
2022/05/16 01:31:46;;;;;;;9.57;3.90;;;12.80;99.90;;;;;;5036360;28;20037;-70
2022/05/16 01:34:12;;;;;;;9.05;3.80;;;12.70;99.90;;;;;;5052896;28;20047;-70
2022/05/16 01:36:38;;;;;;;11.27;4.50;;;12.70;99.90;;;;;;5035639;28;20558;-70
2022/05/16 01:39:04;;;;;;;8.18;3.90;;;12.60;99.90;;;;;;5052712;28;20045;-70
2022/05/16 01:41:29;;;;;;;10.88;4.25;;;12.70;99.90;;;;;;5052617;28;20076;-70
2022/05/16 01:43:58;;;;;;;11.40;4.03;;;12.70;99.90;;;;;;5052930;28;20045;-70
2022/05/16 01:46:33;;;;;;;8.95;3.85;;;12.70;99.90;;;;;;5051285;28;20048;-70
2022/05/16 01:48:59;;;;;;;8.68;3.58;;;12.70;99.90;;;;;;5050962;28;20033;-70
2022/05/16 01:51:24;;;;;;;10.55;4.25;;;12.70;99.90;;;;;;5050120;28;20067;-70
2022/05/16 01:53:50;;;;;;;9.63;3.60;;;12.60;99.90;;;;;;5049773;28;20140;-70
2022/05/16 01:56:16;;;;;;;8.55;3.35;;;12.70;99.90;;;;;;5031125;28;20032;-70
2022/05/16 01:58:44;;;;;;;8.70;3.30;;;12.70;99.90;;;;;;5052408;28;20090;-70
2022/05/16 02:01:11;;;;;;;8.20;3.40;;;12.70;99.90;;;;;;5035775;28;20547;-70
2022/05/16 02:03:38;;;;;;;11.25;3.22;;;12.80;99.90;;;;;;5051254;28;20049;-70
2022/05/16 02:06:04;;;;;;;8.82;3.45;;;12.70;99.90;;;;;;5050638;28;20033;-70
2022/05/16 02:08:30;;;;;;;7.47;3.30;;;12.50;99.90;;;;;;5052273;28;20116;-70
2022/05/16 02:10:55;;;;;;;8.30;3.00;;;12.50;99.90;;;;;;5035571;28;20048;-70
2022/05/16 02:13:21;;;;;;;9.27;3.42;;;12.50;99.90;;;;;;5052403;28;20048;-70
2022/05/16 02:15:46;;;;;;;9.50;3.10;;;12.40;99.90;;;;;;5048523;28;20045;-70
2022/05/16 02:18:13;;;;;;;7.53;3.47;;;12.50;99.90;;;;;;5050403;28;20033;-70
2022/05/16 02:20:39;;;;;;;8.32;3.13;;;12.40;99.90;;;;;;5051304;28;20393;-70
2022/05/16 02:25:51;;;;;;;7.53;3.20;;;12.50;99.90;;;;;;5049938;28;20076;-70
2022/05/16 02:28:18;;;;;;;8.32;3.05;;;12.40;99.90;;;;;;5034620;28;20044;-70
2022/05/16 02:30:45;;;;;;;6.20;2.75;;;12.50;99.90;;;;;;5051802;28;20524;-70
2022/05/16 02:33:12;;;;;;;6.97;2.75;;;12.40;99.90;;;;;;5051904;28;20033;-70
2022/05/16 02:35:38;;;;;;;7.22;2.75;;;12.40;99.90;;;;;;5034343;28;20029;-71
2022/05/16 02:38:05;;;;;;;7.43;2.92;;;12.40;99.90;;;;;;5035249;28;20037;-70
2022/05/16 02:40:32;;;;;;;6.85;3.03;;;12.60;99.90;;;;;;5034814;28;20033;-70
2022/05/16 02:42:58;;;;;;;7.28;3.28;;;12.30;99.90;;;;;;5052064;28;20072;-70
2022/05/16 02:45:25;;;;;;;7.38;2.90;;;12.40;99.90;;;;;;5034349;28;20496;-70
2022/05/16 02:47:51;;;;;;;7.15;2.42;;;12.30;99.90;;;;;;5035431;28;20056;-70
2022/05/16 02:50:18;;;;;;;6.63;2.80;;;12.30;99.90;;;;;;5035247;28;20040;-70
2022/05/16 02:52:44;;;;;;;6.47;2.58;;;12.30;99.90;;;;;;5052051;28;20053;-70
2022/05/16 02:55:10;;;;;;;6.53;3.08;;;12.20;99.90;;;;;;5033461;28;20033;-70
2022/05/16 02:57:36;;;;;;;6.55;2.40;;;12.30;99.90;;;;;;5051714;28;20158;-70
2022/05/16 03:00:04;;;;;;;7.80;2.75;;;12.20;99.90;;;;;;5034633;28;20053;-70
2022/05/16 03:02:30;;;;;;;7.40;2.80;;;12.20;99.90;;;;;;5051463;28;20080;-70
2022/05/16 03:04:56;;;;;;;6.68;2.45;;;12.20;99.90;;;;;;5027069;28;20494;-70
2022/05/16 03:07:21;;;;;;;5.80;2.50;;;12.20;99.90;;;;;;5031764;28;20502;-70
2022/05/16 03:09:47;;;;;;;7.15;2.53;;;12.20;99.90;;;;;;5033131;28;20038;-70
2022/05/16 03:12:13;;;;;;;5.57;2.33;;;12.10;99.90;;;;;;5051451;28;20037;-70
2022/05/16 03:14:39;;;;;;;7.13;2.53;;;12.20;99.90;;;;;;5050462;28;20060;-70
2022/05/16 03:17:05;;;;;;;7.72;2.65;;;12.20;99.90;;;;;;5044154;28;20043;-70
2022/05/16 03:19:30;;;;;;;7.82;2.47;;;12.10;99.90;;;;;;5023604;28;20481;-70
2022/05/16 03:21:56;;;;;;;8.00;2.50;;;12.10;99.90;;;;;;5036476;28;20041;-70
2022/05/16 03:24:22;;;;;;;8.07;2.80;;;12.10;99.90;;;;;;5028630;28;20041;-70
2022/05/16 03:26:47;;;;;;;5.68;2.70;;;12.00;99.90;;;;;;5030850;28;20144;-70
2022/05/16 03:29:14;;;;;;;7.00;2.60;;;11.90;99.90;;;;;;5008701;28;20041;-70
2022/05/16 03:31:41;;;;;;;5.53;2.25;;;11.90;99.90;;;;;;5017617;28;20405;-70
2022/05/16 03:34:09;;;;;;;8.65;2.80;;;11.90;99.90;;;;;;5031336;28;20576;-70
2022/05/16 03:36:35;;;;;;;6.68;2.45;;;12.00;99.90;;;;;;5016457;28;20477;-70
2022/05/16 03:41:44;;;;;;;7.72;2.58;;;12.00;99.90;;;;;;5027755;28;20051;-70
2022/05/16 03:44:10;;;;;;;6.13;2.72;;;12.00;99.90;;;;;;5026644;28;20037;-71
2022/05/16 03:46:37;;;;;;;6.30;2.60;;;11.90;99.90;;;;;;5030360;28;20170;-70
2022/05/16 03:49:03;;;;;;;8.25;2.20;;;12.00;99.90;;;;;;5029953;28;20066;-71
2022/05/16 03:51:30;;;;;;;8.30;2.58;;;12.00;99.90;;;;;;5033327;28;20060;-70
2022/05/16 03:53:55;;;;;;;9.65;2.38;;;11.90;99.90;;;;;;5028396;28;20033;-70
2022/05/16 03:56:24;;;;;;;8.75;2.63;;;12.00;99.90;;;;;;5026210;28;20086;-71
2022/05/16 03:58:50;;;;;;;5.75;2.50;;;12.00;99.90;;;;;;5027023;28;20120;-70
2022/05/16 04:01:16;;;;;;;4.25;2.10;;;12.00;99.90;;;;;;5025523;28;20064;-70
2022/05/16 04:03:42;;;;;;;6.88;2.67;;;11.90;99.90;;;;;;5014731;28;20421;-71
2022/05/16 04:06:08;;;;;;;6.47;2.50;;;11.90;99.90;;;;;;5028040;28;20033;-70
2022/05/16 04:08:34;;;;;;;5.97;2.22;;;11.90;99.90;;;;;;5029960;28;20047;-70
2022/05/16 04:11:01;;;;;;;7.15;2.25;;;11.90;99.90;;;;;;5011691;28;20044;-70
2022/05/16 04:13:27;;;;;;;6.47;2.50;;;11.90;99.90;;;;;;5022748;28;20046;-70
2022/05/16 04:15:54;;;;;;;7.80;2.50;;;12.00;99.90;;;;;;5037387;28;20036;-70
2022/05/16 04:18:19;;;;;;;6.82;2.45;;;12.00;99.90;;;;;;5054262;28;20078;-70
2022/05/16 04:20:46;;;;;;;7.88;2.47;;;12.00;99.90;;;;;;5051667;28;20131;-70
2022/05/16 04:23:12;;;;;;;5.72;2.35;;;12.00;99.90;;;;;;5037491;28;20452;-71
2022/05/16 04:25:38;;;;;;;6.20;2.40;;;12.10;99.90;;;;;;5026854;28;20079;-70
2022/05/16 04:28:08;;;;;;;6.38;2.20;;;12.10;99.90;;;;;;5012936;28;20179;-70
2022/05/16 04:30:34;;;;;;;6.55;2.40;;;12.20;99.90;;;;;;5046056;28;20485;-70
2022/05/16 04:33:00;;;;;;;6.45;2.40;;;12.10;99.90;;;;;;5037658;28;20052;-70
2022/05/16 04:35:26;;;;;;;7.40;2.33;;;12.10;99.90;;;;;;5052603;28;20034;-71
2022/05/16 04:37:52;;;;;;;7.80;2.65;;;12.30;99.90;;;;;;5054061;28;20033;-70
2022/05/16 04:40:18;;;;;;;9.85;2.70;;;12.10;99.90;;;;;;5052598;28;20059;-70
2022/05/16 04:42:44;;;;;;;7.82;2.80;;;12.10;99.90;;;;;;5036832;28;20044;-70
2022/05/16 04:45:23;;;;;;;6.68;2.50;;;12.10;99.90;;;;;;5051322;28;20045;-71
2022/05/16 04:47:51;;;;;;;6.18;2.83;;;12.10;99.90;;;;;;5053733;28;20037;-71
2022/05/16 04:50:21;;;;;;;7.18;2.53;;;12.20;99.90;;;;;;5052370;28;20116;-71
2022/05/16 04:52:46;;;;;;;7.28;2.60;;;12.10;99.90;;;;;;5053567;28;20126;-71
2022/05/16 04:55:13;;;;;;;6.07;2.80;;;12.10;99.90;;;;;;5052964;28;20073;-71
2022/05/16 04:57:39;;;;;;;9.23;2.92;;;12.20;99.90;;;;;;5053513;28;20570;-71
2022/05/16 05:00:07;;;;;;;5.53;2.40;;;12.20;99.90;;;;;;5052794;28;20037;-71
2022/05/16 05:02:32;;;;;;;7.53;2.63;;;12.20;99.90;;;;;;5025614;28;20064;-71
2022/05/16 05:04:59;;;;;;;6.75;2.65;;;12.20;99.90;;;;;;5037950;28;20059;-71
2022/05/16 05:07:25;;;;;;;7.00;3.03;;;12.30;99.90;;;;;;5027876;28;20146;-71
2022/05/16 05:15:19;;;;;;;7.15;2.70;;;12.40;99.90;;;;;;5030896;28;20513;-71
2022/05/16 05:17:45;;;;;;;8.98;3.05;;;12.40;99.90;;;;;;5017188;28;20045;-71
2022/05/16 05:20:14;;;;;;;7.13;2.75;;;12.40;99.90;;;;;;5031526;28;20460;-71
2022/05/16 05:22:41;;;;;;;9.25;3.00;;;12.50;99.90;;;;;;5035482;28;20052;-71
2022/05/16 05:25:13;;;;;;;7.05;2.72;;;12.50;99.90;;;;;;5039443;28;20489;-71
2022/05/16 05:27:42;;;;;;;7.50;2.70;;;12.60;99.90;;;;;;5040062;28;20052;-71
2022/05/16 05:30:11;;;;;;;7.00;3.03;;;12.70;99.90;;;;;;5026014;28;20045;-71
2022/05/16 05:32:37;;;;;;;8.05;3.33;;;12.80;99.90;;;;;;5024732;28;20041;-71
2022/05/16 05:35:04;;;;;;;9.90;3.00;;;12.90;99.90;;;;;;5022120;28;20029;-71
2022/05/16 05:37:30;;;;;;;8.75;3.15;;;13.00;99.90;;;;;;5011240;28;20037;-71
2022/05/16 05:40:00;;;;;;;6.60;2.70;;;13.10;99.90;;;;;;5026659;28;20044;-71
2022/05/16 05:42:27;;;;;;;9.48;2.90;;;13.20;99.90;;;;;;5007793;28;20184;-71
2022/05/16 05:44:53;;;;;;;9.07;2.75;;;13.20;99.90;;;;;;5021936;28;20048;-71
2022/05/16 05:47:19;;;;;;;6.68;2.60;;;13.20;99.90;;;;;;5027826;28;20048;-71
2022/05/16 05:49:45;;;;;;;8.60;2.83;;;13.20;99.90;;;;;;5022059;28;20519;-72
2022/05/16 05:52:10;;;;;;;7.07;2.90;;;13.30;99.90;;;;;;5021217;28;20041;-72
2022/05/16 05:54:36;;;;;;;8.73;2.97;;;13.30;99.90;;;;;;5021591;28;20032;-72
2022/05/16 05:57:02;;;;;;;9.50;3.15;;;13.40;99.90;;;;;;5025603;28;20040;-72
2022/05/16 05:59:28;;;;;;;7.20;2.70;;;13.40;99.90;;;;;;5022060;28;20051;-71
2022/05/16 06:01:54;;;;;;;7.18;3.00;;;13.60;99.90;;;;;;5020648;28;20567;-72
2022/05/16 06:04:20;;;;;;;6.45;3.00;;;13.90;99.90;;;;;;5023172;28;20565;-72
2022/05/16 06:06:47;;;;;;;10.65;3.05;;;14.00;99.90;;;;;;5025663;28;20067;-72
2022/05/16 06:09:13;;;;;;;6.70;2.70;;;14.20;99.90;;;;;;5026331;28;20516;-72
2022/05/16 06:11:39;;;;;;;7.72;3.03;;;14.30;99.90;;;;;;5020475;28;20041;-72
2022/05/16 06:14:04;;;;;;;8.25;3.20;;;14.50;99.90;;;;;;5028192;28;20504;-72
2022/05/16 06:16:30;;;;;;;7.82;2.80;;;14.40;99.90;;;;;;5026179;28;20037;-71
2022/05/16 06:18:56;;;;;;;9.27;2.90;;;14.40;99.90;;;;;;5021016;28;20040;-71
2022/05/16 06:21:21;;;;;;;10.88;3.92;;;14.40;99.90;;;;;;5043998;28;20044;-72
2022/05/16 06:23:47;;;;;;;8.35;3.28;;;14.30;99.90;;;;;;5035635;28;20044;-72
2022/05/16 06:26:12;;;;;;;7.75;3.10;;;14.30;99.90;;;;;;5045925;28;20122;-71
2022/05/16 06:28:39;;;;;;;5.88;2.88;;;14.30;99.90;;;;;;5019139;28;20658;-69
2022/05/16 06:31:06;;;;;;;7.50;2.80;;;14.30;99.90;;;;;;5018497;28;20037;-69
2022/05/16 06:33:31;;;;;;;8.38;3.17;;;14.40;99.90;;;;;;5032396;28;20123;-69
2022/05/16 06:35:59;;;;;;;10.40;3.40;;;14.50;99.90;;;;;;5046463;28;20120;-69
2022/05/16 06:38:31;;;;;;;9.55;3.33;;;14.70;99.90;;;;;;5049660;28;20079;-69
2022/05/16 06:40:58;;;;;;;10.43;3.30;;;14.80;99.90;;;;;;5035457;28;20397;-69
2022/05/16 06:43:25;;;;;;;7.60;3.33;;;15.10;99.90;;;;;;5035076;28;20565;-70
2022/05/16 06:45:51;;;;;;;10.00;2.80;;;15.30;99.90;;;;;;5051872;28;20052;-70
2022/05/16 06:48:17;;;;;;;8.00;3.50;;;15.40;99.90;;;;;;5051744;28;20041;-70
2022/05/16 06:50:45;;;;;;;10.25;3.20;;;15.70;99.90;;;;;;5051797;28;20048;-69
2022/05/16 06:53:16;;;;;;;7.43;2.95;;;15.80;99.90;;;;;;5046123;28;20493;-69
2022/05/16 06:55:43;;;;;;;9.63;2.80;;;15.90;99.90;;;;;;5044021;28;20158;-70
2022/05/16 06:58:08;;;;;;;9.52;2.85;;;16.00;99.90;;;;;;5051635;28;20481;-69
2022/05/16 07:00:34;;;;;;;6.43;3.00;;;16.10;99.90;;;;;;5051507;28;20051;-69
2022/05/16 07:03:00;;;;;;;9.25;3.60;;;16.30;99.90;;;;;;5035012;28;20041;-69
2022/05/16 07:05:26;;;;;;;8.68;3.03;;;16.40;99.90;;;;;;5035643;28;20091;-69
2022/05/16 07:07:51;;;;;;;9.40;3.33;;;16.50;99.90;;;;;;5039331;28;20554;-69
2022/05/16 07:10:17;;;;;;;8.93;2.97;;;16.60;99.90;;;;;;5056749;28;20033;-70
2022/05/16 07:12:42;;;;;;;8.15;3.30;;;16.70;99.90;;;;;;5048375;28;20040;-70
2022/05/16 07:15:10;;;;;;;8.73;2.83;;;16.80;99.90;;;;;;5035909;28;20367;-70
2022/05/16 07:17:36;;;;;;;9.57;3.05;;;17.00;99.90;;;;;;5035574;28;20045;-70
2022/05/16 07:20:02;;;;;;;9.68;2.88;;;17.10;99.90;;;;;;5035600;28;20036;-70
2022/05/16 07:22:28;;;;;;;9.35;2.95;;;17.20;99.90;;;;;;5037298;28;20041;-70
2022/05/16 07:24:55;;;;;;;10.32;3.83;;;17.30;99.90;;;;;;5055207;28;20098;-70
2022/05/16 07:30:09;;;;;;;8.10;3.15;;;17.50;99.90;;;;;;5045915;28;20393;-70
2022/05/16 07:32:41;;;;;;;9.93;2.97;;;17.60;99.90;;;;;;5028855;28;20060;-70
2022/05/16 07:35:08;;;;;;;8.93;3.17;;;17.70;99.90;;;;;;5035405;28;20068;-70
2022/05/16 07:37:34;;;;;;;9.43;2.97;;;17.80;99.50;;;;;;5018703;28;20453;-69
2022/05/16 07:39:59;;;;;;;9.73;3.00;;;17.90;99.50;;;;;;5035231;28;20030;-70
2022/05/16 07:42:26;;;;;;;7.75;2.72;;;18.00;99.90;;;;;;5034796;28;20416;-70
2022/05/16 07:44:52;;;;;;;9.93;3.60;;;18.10;99.90;;;;;;5051257;28;20046;-72
2022/05/16 07:47:17;;;;;;;8.13;3.58;;;18.10;99.60;;;;;;5018343;28;20049;-72
2022/05/16 07:49:43;;;;;;;10.30;3.22;;;18.20;99.70;;;;;;5034857;28;20077;-72
2022/05/16 07:52:10;;;;;;;9.30;3.25;;;18.30;99.90;;;;;;5017416;28;20486;-72
2022/05/16 07:54:37;;;;;;;9.48;3.20;;;18.40;99.90;;;;;;5036913;28;20033;-72
2022/05/16 07:57:04;;;;;;;9.50;3.70;;;18.60;99.50;;;;;;5054418;28;20048;-72
2022/05/16 07:59:29;;;;;;;12.10;3.30;;;18.60;99.90;;;;;;5038342;28;20076;-72
2022/05/16 08:01:55;;;;;;;10.80;3.20;;;18.70;99.20;;;;;;5054196;28;20091;-72
2022/05/16 08:04:21;;;;;;;11.35;3.20;;;18.70;99.30;;;;;;5054089;28;20094;-72
2022/05/16 08:06:47;;;;;;;9.88;3.17;;;18.80;99.90;;;;;;5035106;28;20049;-74
2022/05/16 08:11:57;;;;;;;9.43;3.13;;;19.20;99.80;;;;;;5050256;28;20477;-74
2022/05/16 08:14:22;;;;;;;10.15;3.15;;;19.50;98.40;;;;;;5053900;28;20037;-73
2022/05/16 08:16:48;;;;;;;7.95;3.40;;;19.60;98.30;;;;;;5054129;28;20041;-72
2022/05/16 08:19:14;;;;;;;11.13;3.28;;;19.80;97.80;;;;;;5035496;28;20037;-72
2022/05/16 08:21:41;;;;;;;9.20;3.10;;;19.90;97.90;;;;;;5053945;28;20475;-73
2022/05/16 08:24:09;;;;;;;9.30;3.17;;;20.00;97.20;;;;;;5054174;28;20122;-72
2022/05/16 08:26:36;;;;;;;9.27;2.58;;;20.10;97.30;;;;;;5043474;28;20080;-73
2022/05/16 08:29:02;;;;;;;10.13;3.40;;;20.30;96.80;;;;;;5049245;28;20041;-73
2022/05/16 08:31:28;;;;;;;7.53;2.72;;;20.40;95.80;;;;;;5037701;28;20083;-73
2022/05/16 08:33:56;;;;;;;8.13;2.67;;;20.60;95.60;;;;;;5026206;28;20036;-72
2022/05/16 08:41:59;;;;;;;10.52;3.72;;;21.10;94.80;;;;;;5053901;28;20046;-72
2022/05/16 08:44:40;;;;;;;9.98;2.75;;;21.20;93.30;;;;;;5035526;28;20044;-73
2022/05/16 08:47:08;;;;;;;12.32;3.38;;;21.30;95.00;;;;;;5047792;28;20043;-72
2022/05/16 08:49:51;;;;;;;10.77;3.05;;;21.40;94.90;;;;;;5053751;28;20056;-72
2022/05/16 08:52:19;;;;;;;9.45;3.00;;;21.50;93.50;;;;;;5036982;28;20037;-73
2022/05/16 08:54:58;;;;;;;8.77;3.00;;;21.70;94.00;;;;;;5035248;28;20091;-72
2022/05/16 08:57:38;;;;;;;9.93;2.83;;;21.90;93.00;;;;;;5052684;28;20105;-73
2022/05/16 09:00:10;;;;;;;11.30;3.22;;;22.10;90.40;;;;;;5052786;28;20037;-73
2022/05/16 09:02:37;;;;;;;;;;;22.20;88.40;;;;;;5037230;28;20144;-73
2022/05/16 09:05:26;;;;;;;8.23;2.70;;;22.30;87.20;;;;;;5036224;28;19963;-73
2022/05/16 09:07:53;;;;;;;9.80;3.13;;;22.30;88.00;;;;;;5053563;28;20041;-72
2022/05/16 09:10:23;;;;;;;7.93;2.60;;;22.30;91.60;;;;;;5053329;28;20049;-72
2022/05/16 09:13:16;;;;;;;9.32;2.70;;;22.30;90.40;;;;;;5051267;28;20037;-72
2022/05/16 09:15:51;;;;;;;8.38;2.83;;;22.40;89.20;;;;;;5036935;28;20033;-72
2022/05/16 09:18:33;;;;;;;9.35;3.00;;;22.40;84.60;;;;;;5053511;28;20080;-73
2022/05/16 09:21:18;;;;;;;7.30;2.70;;;22.40;90.90;;;;;;5046062;28;20064;-73
2022/05/16 09:24:00;;;;;;;8.50;2.65;;;22.60;86.50;;;;;;5032846;28;20041;-72
2022/05/16 09:26:29;;;;;;;;;;;22.80;90.20;;;;;;5036126;28;20033;-73
2022/05/16 09:29:20;;;;;;;8.88;2.65;;;22.90;90.70;;;;;;5034808;28;19921;-74
2022/05/16 09:31:48;;;;;;;7.67;3.03;;;23.10;82.10;;;;;;5036022;28;20056;-73
2022/05/16 09:34:15;;;;;;;10.20;2.75;;;23.00;87.10;;;;;;5036242;28;20044;-73
2022/05/16 09:36:48;;;;;;;9.15;2.65;;;23.10;88.40;;;;;;5035867;28;20040;-74
2022/05/16 09:39:31;;;;;;;9.10;2.90;;;23.00;87.00;;;;;;5032666;28;20041;-73
2022/05/16 09:42:20;;;;;;;8.68;2.22;;;23.00;84.20;;;;;;5047907;28;20041;-74
2022/05/16 09:45:17;;;;;;;8.23;2.65;;;23.00;76.90;;;;;;5051930;28;20504;-73
2022/05/16 09:47:43;;;;;;;9.18;2.53;;;23.00;85.40;;;;;;5049314;28;20188;-74
2022/05/16 09:50:14;;;;;;;8.15;2.40;;;23.20;85.60;;;;;;5037628;28;20112;-73
2022/05/16 09:53:01;;;;;;;7.80;2.90;;;23.30;82.80;;;;;;5028033;28;20041;-74
2022/05/16 09:55:34;;;;;;;8.68;3.00;;;23.30;80.80;;;;;;5040744;28;20045;-73
2022/05/16 09:58:18;;;;;;;9.90;3.30;;;23.50;85.30;;;;;;5049197;28;20119;-73
2022/05/16 10:00:59;;;;;;;8.80;2.95;;;23.50;86.60;;;;;;5044125;28;20068;-73
2022/05/16 10:03:46;;;;;;;8.07;2.90;;;23.70;82.70;;;;;;5032085;28;20037;-74
2022/05/16 10:06:32;;;;;;;8.10;2.35;;;23.70;84.00;;;;;;5035223;28;20504;-73
2022/05/16 10:09:26;;;;;;;9.93;2.72;;;24.10;73.00;;;;;;5034463;28;20106;-73
2022/05/16 10:11:52;;;;;;;7.22;2.47;;;24.00;75.00;;;;;;5047268;28;20040;-74
2022/05/16 10:14:18;;;;;;;9.57;3.03;;;24.20;71.60;;;;;;5033376;28;20048;-73
2022/05/16 10:16:48;;;;;;;10.63;3.00;;;24.10;75.60;;;;;;5040134;28;20042;-74
2022/05/16 10:19:19;;;;;;;6.75;2.67;;;24.00;73.70;;;;;;5021922;28;20400;-73
2022/05/16 10:22:01;;;;;;;7.75;2.80;;;24.00;73.50;;;;;;5047721;28;20401;-73
2022/05/16 10:24:32;;;;;;;8.25;2.95;;;24.10;72.30;;;;;;5029733;28;20032;-73
2022/05/16 10:27:09;;;;;;;8.43;2.88;;;24.30;69.10;;;;;;5047848;28;20033;-73
2022/05/16 10:29:40;;;;;;;9.48;2.97;;;24.30;66.60;;;;;;5028116;28;20073;-73
2022/05/16 10:35:16;;;;;;;9.98;2.95;;;24.10;67.50;;;;;;5051224;28;20084;-74
2022/05/16 10:37:46;;;;;;;7.35;2.60;;;24.10;69.00;;;;;;5034550;28;20546;-74
2022/05/16 10:40:22;;;;;;;9.50;3.40;;;24.20;74.10;;;;;;5034123;28;20128;-73
2022/05/16 10:42:50;;;;;;;8.52;3.10;;;24.20;76.90;;;;;;5033418;28;20123;-74
2022/05/16 10:45:23;;;;;;;9.15;2.92;;;24.20;75.30;;;;;;5041426;28;20409;-73
2022/05/16 10:47:57;;;;;;;8.75;2.53;;;24.20;68.10;;;;;;5025613;28;20040;-74
2022/05/16 10:50:49;;;;;;;8.05;2.58;;;24.20;68.90;;;;;;5037733;28;20040;-72
2022/05/16 10:53:21;;;;;;;;;;;24.20;68.20;;;;;;5040465;28;20486;-72
2022/05/16 10:56:02;;;;;;;;;;;24.10;66.70;;;;;;5025426;28;19917;-73
2022/05/16 10:58:54;;;;;;;8.82;2.67;;;24.00;75.40;;;;;;5031388;28;20012;-73
2022/05/16 11:01:25;;;;;;;8.32;2.80;;;24.00;73.00;;;;;;5050076;28;20520;-73
2022/05/16 11:04:15;;;;;;;9.18;2.60;;;24.10;73.60;;;;;;5050101;28;20439;-73
2022/05/16 11:07:01;;;;;;;9.48;2.92;;;24.20;71.40;;;;;;5050369;28;20087;-73
2022/05/16 11:10:00;;;;;;;9.68;2.95;;;24.20;63.80;;;;;;5046379;28;20068;-72
2022/05/16 11:12:34;;;;;;;8.77;2.63;;;24.10;68.30;;;;;;5033649;28;20060;-73
2022/05/16 11:15:05;;;;;;;9.07;3.13;;;24.20;68.00;;;;;;5033678;28;20147;-73
2022/05/16 11:17:39;;;;;;;7.60;2.90;;;24.20;68.70;;;;;;5050126;28;20397;-74
2022/05/16 11:20:19;;;;;;;7.88;2.55;;;24.30;63.60;;;;;;5034005;28;20041;-73
2022/05/16 11:22:53;;;;;;;7.88;2.67;;;24.00;65.50;;;;;;5050140;28;20044;-73
2022/05/16 11:25:37;;;;;;;9.85;2.90;;;23.80;73.30;;;;;;5047891;28;20063;-73
2022/05/16 11:28:14;;;;;;;8.48;3.00;;;23.60;78.00;;;;;;5049005;28;20511;-73
2022/05/16 11:30:49;;;;;;;8.75;3.15;;;23.50;82.20;;;;;;5015272;28;20095;-73
2022/05/16 11:33:23;;;;;;;6.38;2.30;;;23.10;91.30;;;;;;5045368;28;20047;-73
2022/05/16 11:35:53;;;;;;;6.32;2.83;;;23.00;92.80;;;;;;5030171;28;20045;-73
2022/05/16 11:38:22;;;;;;;9.10;2.80;;;22.80;93.60;;;;;;5044451;28;20040;-73
2022/05/16 11:41:09;;;;;;;8.40;2.60;;;22.70;94.20;;;;;;5050043;28;20045;-73
2022/05/16 11:43:40;;;;;;;7.22;2.95;;;22.70;95.50;;;;;;5032964;28;20570;-73
2022/05/16 11:46:09;;;;;;;;;;;22.50;95.60;;;;;;5033569;28;20045;-73
2022/05/16 11:48:37;;;;;;;8.13;2.72;;;22.40;95.20;;;;;;5049770;28;20055;-73
2022/05/16 11:51:18;;;;;;;6.72;2.60;;;22.30;94.40;;;;;;5033525;28;20041;-73
2022/05/16 11:53:48;;;;;;;6.97;3.05;;;22.30;95.40;;;;;;5048920;28;20033;-73
2022/05/16 12:02:27;;;;;;;;;;;22.00;97.00;;;;;;5052033;28;20057;-73
2022/05/16 12:05:03;;;;;;;10.20;3.50;;;22.00;98.00;;;;;;5037921;28;20007;-73
2022/05/16 12:07:44;;;;;;;8.02;3.55;;;22.10;99.90;;;;;;5037414;28;20045;-73
2022/05/16 12:10:16;;;;;;;12.77;4.07;;;22.20;99.90;;;;;;5054114;28;20103;-73
2022/05/16 12:12:44;;;;;;;10.50;3.40;;;22.10;99.90;;;;;;5037647;28;20051;-73
2022/05/16 12:15:16;;;;;;;7.80;3.35;;;22.00;99.90;;;;;;5054045;28;20041;-73
2022/05/16 12:18:03;;;;;;;9.15;3.45;;;21.90;99.90;;;;;;5054088;28;20119;-73
2022/05/16 12:20:44;;;;;;;8.38;3.75;;;21.80;99.90;;;;;;5050902;28;20041;-73
2022/05/16 12:23:34;;;;;;;8.40;3.70;;;21.80;99.90;;;;;;5053882;28;20124;-73
2022/05/16 12:25:59;;;;;;;7.13;3.78;;;21.70;99.90;;;;;;5051523;28;20033;-73
2022/05/16 12:28:29;;;;;;;9.45;4.07;;;21.80;99.90;;;;;;5052247;28;20048;-73
2022/05/16 12:31:00;;;;;;;9.48;3.83;;;21.70;99.90;;;;;;5053718;28;20037;-73
2022/05/16 12:33:43;;;;;;;10.80;4.18;;;21.70;99.90;;;;;;5053908;28;20401;-73
2022/05/16 12:36:14;;;;;;;11.20;4.45;;;21.80;99.90;;;;;;5052985;28;20040;-73
2022/05/16 12:38:42;;;;;;;9.73;4.00;;;21.70;99.90;;;;;;5053384;28;20041;-73
2022/05/16 12:41:39;;;;;;;9.68;4.53;;;21.70;99.90;;;;;;5037002;28;20037;-73
2022/05/16 12:44:22;;;;;;;8.90;3.70;;;21.70;99.90;;;;;;5036433;28;20049;-73
2022/05/16 12:47:00;;;;;;;11.00;4.20;;;21.70;99.90;;;;;;5052824;28;20094;-73
2022/05/16 12:49:46;;;;;;;11.95;4.43;;;21.60;99.90;;;;;;5036391;28;20489;-73
2022/05/16 12:52:41;;;;;;;9.00;4.20;;;21.70;99.90;;;;;;5035218;28;20482;-73
2022/05/16 12:55:38;;;;;;;11.73;5.20;;;21.70;99.90;;;;;;5052923;28;20040;-73
2022/05/16 12:58:12;;;;;;;10.82;4.68;;;21.90;99.90;;;;;;5052967;28;20037;-73
2022/05/16 13:00:50;;;;;;;11.10;4.70;;;22.10;99.90;;;;;;5036509;28;20041;-73
2022/05/16 13:03:44;;;;;;;12.80;4.70;;;22.30;99.90;;;;;;5036252;28;20071;-73
2022/05/16 13:06:21;;;;;;;10.85;4.35;;;22.40;99.90;;;;;;5052655;28;20074;-73
2022/05/16 13:08:54;;;;;;;11.48;4.25;;;22.60;99.90;;;;;;5052981;28;20044;-73
2022/05/16 13:11:38;;;;;;;9.73;4.25;;;22.50;99.90;;;;;;5036230;28;20045;-73
2022/05/16 13:14:22;;;;;;;10.82;4.53;;;22.60;99.90;;;;;;5036850;28;20041;-73
2022/05/16 13:17:04;;;;;;;16.20;5.22;;;22.70;99.90;;;;;;5048344;28;20041;-73
2022/05/16 13:19:32;;;;;;;;;;;22.60;99.90;;;;;;5035365;28;20038;-73
2022/05/16 13:22:09;;;;;;;11.32;4.97;;;22.70;99.90;;;;;;5044596;28;19917;-73
2022/05/16 13:24:35;;;;;;;11.63;5.65;;;22.80;99.90;;;;;;5024684;28;20087;-73
2022/05/16 13:29:48;;;;;;;9.68;5.20;;;22.70;99.90;;;;;;5048381;28;20048;-73
2022/05/16 13:32:18;;;;;;;11.68;4.88;;;22.70;99.90;;;;;;5035298;28;20043;-73
2022/05/16 13:34:53;;;;;;;13.18;5.10;;;22.80;99.90;;;;;;5051159;28;20051;-72
2022/05/16 13:37:25;;;;;;;11.48;4.60;;;22.80;99.90;;;;;;5050171;28;20512;-73
2022/05/16 13:39:56;;;;;;;9.90;3.90;;;22.70;99.90;;;;;;5051551;28;20044;-72
2022/05/16 13:42:22;;;;;;;11.85;4.40;;;22.70;99.90;;;;;;5034644;28;20048;-78